sensor_id;sensor_type;location;lat;lon;timestamp;temperature;humidity
74617;DHT22;63123;50.906;4.198;2022-10-23T00:02:24;19.80;67.30
74617;DHT22;63123;50.906;4.198;2022-10-23T00:04:51;19.70;67.30
74617;DHT22;63123;50.906;4.198;2022-10-23T00:07:17;19.80;67.30
74617;DHT22;63123;50.906;4.198;2022-10-23T00:09:42;19.70;67.30
74617;DHT22;63123;50.906;4.198;2022-10-23T00:12:08;19.80;67.30
74617;DHT22;63123;50.906;4.198;2022-10-23T00:14:34;19.80;67.30
74617;DHT22;63123;50.906;4.198;2022-10-23T00:16:59;19.80;67.30
74617;DHT22;63123;50.906;4.198;2022-10-23T00:19:25;19.80;67.30
74617;DHT22;63123;50.906;4.198;2022-10-23T00:21:51;19.70;67.30
74617;DHT22;63123;50.906;4.198;2022-10-23T00:24:16;19.80;67.30
74617;DHT22;63123;50.906;4.198;2022-10-23T00:26:42;19.80;67.30
74617;DHT22;63123;50.906;4.198;2022-10-23T00:29:08;19.80;67.30
74617;DHT22;63123;50.906;4.198;2022-10-23T00:31:34;19.70;67.30
74617;DHT22;63123;50.906;4.198;2022-10-23T00:34:00;19.80;67.40
74617;DHT22;63123;50.906;4.198;2022-10-23T00:36:26;19.80;67.30
74617;DHT22;63123;50.906;4.198;2022-10-23T00:38:52;19.80;67.30
74617;DHT22;63123;50.906;4.198;2022-10-23T00:41:21;19.80;67.30
74617;DHT22;63123;50.906;4.198;2022-10-23T00:46:42;19.70;67.20
74617;DHT22;63123;50.906;4.198;2022-10-23T00:49:09;19.80;67.30
74617;DHT22;63123;50.906;4.198;2022-10-23T00:51:45;19.70;67.30
74617;DHT22;63123;50.906;4.198;2022-10-23T00:54:13;19.80;67.30
74617;DHT22;63123;50.906;4.198;2022-10-23T00:56:42;19.80;67.30
74617;DHT22;63123;50.906;4.198;2022-10-23T00:59:08;19.70;67.30
74617;DHT22;63123;50.906;4.198;2022-10-23T01:01:33;19.80;67.40
74617;DHT22;63123;50.906;4.198;2022-10-23T01:04:01;19.80;67.40
74617;DHT22;63123;50.906;4.198;2022-10-23T01:06:37;19.80;67.30
74617;DHT22;63123;50.906;4.198;2022-10-23T01:09:17;19.80;67.30
74617;DHT22;63123;50.906;4.198;2022-10-23T01:14:31;19.80;67.40
74617;DHT22;63123;50.906;4.198;2022-10-23T01:17:19;19.70;67.30
74617;DHT22;63123;50.906;4.198;2022-10-23T01:20:00;19.70;67.30
74617;DHT22;63123;50.906;4.198;2022-10-23T01:26:01;19.70;67.30
74617;DHT22;63123;50.906;4.198;2022-10-23T01:28:36;19.70;67.30
74617;DHT22;63123;50.906;4.198;2022-10-23T01:31:10;19.70;67.40
74617;DHT22;63123;50.906;4.198;2022-10-23T01:33:46;19.80;68.00
74617;DHT22;63123;50.906;4.198;2022-10-23T01:36:19;19.70;67.40
74617;DHT22;63123;50.906;4.198;2022-10-23T01:39:09;19.70;67.40
74617;DHT22;63123;50.906;4.198;2022-10-23T01:41:49;19.70;67.40
74617;DHT22;63123;50.906;4.198;2022-10-23T01:44:41;19.70;67.40
74617;DHT22;63123;50.906;4.198;2022-10-23T01:47:10;19.70;67.40
74617;DHT22;63123;50.906;4.198;2022-10-23T01:49:39;19.70;67.40
74617;DHT22;63123;50.906;4.198;2022-10-23T01:52:08;19.70;67.40
74617;DHT22;63123;50.906;4.198;2022-10-23T01:54:38;19.70;67.40
74617;DHT22;63123;50.906;4.198;2022-10-23T01:57:09;19.70;67.40
74617;DHT22;63123;50.906;4.198;2022-10-23T01:59:42;19.70;67.40
74617;DHT22;63123;50.906;4.198;2022-10-23T02:02:10;19.80;67.40
74617;DHT22;63123;50.906;4.198;2022-10-23T02:04:41;19.80;67.50
74617;DHT22;63123;50.906;4.198;2022-10-23T02:07:10;19.80;67.40
74617;DHT22;63123;50.906;4.198;2022-10-23T02:09:36;19.70;67.40
74617;DHT22;63123;50.906;4.198;2022-10-23T02:12:12;19.70;67.40
74617;DHT22;63123;50.906;4.198;2022-10-23T02:14:57;19.80;67.40
74617;DHT22;63123;50.906;4.198;2022-10-23T02:20:21;19.70;67.40
74617;DHT22;63123;50.906;4.198;2022-10-23T02:22:57;19.70;67.40
74617;DHT22;63123;50.906;4.198;2022-10-23T02:25:34;19.70;67.40
74617;DHT22;63123;50.906;4.198;2022-10-23T02:28:03;19.70;67.40
74617;DHT22;63123;50.906;4.198;2022-10-23T02:30:31;19.70;67.40
74617;DHT22;63123;50.906;4.198;2022-10-23T02:32:58;19.80;67.50
74617;DHT22;63123;50.906;4.198;2022-10-23T02:35:24;19.70;67.40
74617;DHT22;63123;50.906;4.198;2022-10-23T02:37:58;19.70;67.40
74617;DHT22;63123;50.906;4.198;2022-10-23T02:40:30;19.70;67.40
74617;DHT22;63123;50.906;4.198;2022-10-23T02:43:16;19.80;67.50
74617;DHT22;63123;50.906;4.198;2022-10-23T02:46:02;19.70;67.40
74617;DHT22;63123;50.906;4.198;2022-10-23T02:48:42;19.70;67.40
74617;DHT22;63123;50.906;4.198;2022-10-23T02:51:17;19.70;67.40
74617;DHT22;63123;50.906;4.198;2022-10-23T02:59:05;19.70;67.40
74617;DHT22;63123;50.906;4.198;2022-10-23T03:01:42;19.70;67.40
74617;DHT22;63123;50.906;4.198;2022-10-23T03:04:12;19.70;67.40
74617;DHT22;63123;50.906;4.198;2022-10-23T03:06:39;19.70;67.40
74617;DHT22;63123;50.906;4.198;2022-10-23T03:09:08;19.70;67.40
74617;DHT22;63123;50.906;4.198;2022-10-23T03:11:34;19.70;67.40
74617;DHT22;63123;50.906;4.198;2022-10-23T03:14:00;19.70;67.40
74617;DHT22;63123;50.906;4.198;2022-10-23T03:16:26;19.70;67.40
74617;DHT22;63123;50.906;4.198;2022-10-23T03:18:52;19.70;67.40
74617;DHT22;63123;50.906;4.198;2022-10-23T03:21:18;19.70;67.40
74617;DHT22;63123;50.906;4.198;2022-10-23T03:23:43;19.70;67.40
74617;DHT22;63123;50.906;4.198;2022-10-23T03:26:09;19.70;67.40
74617;DHT22;63123;50.906;4.198;2022-10-23T03:28:34;19.70;67.40
74617;DHT22;63123;50.906;4.198;2022-10-23T03:31:00;19.70;67.40
74617;DHT22;63123;50.906;4.198;2022-10-23T03:33:30;19.70;67.40
74617;DHT22;63123;50.906;4.198;2022-10-23T03:35:55;19.70;67.40
74617;DHT22;63123;50.906;4.198;2022-10-23T03:38:21;19.70;67.40
74617;DHT22;63123;50.906;4.198;2022-10-23T03:40:47;19.70;67.40
74617;DHT22;63123;50.906;4.198;2022-10-23T03:43:12;19.70;67.40
74617;DHT22;63123;50.906;4.198;2022-10-23T03:45:38;19.70;67.40
74617;DHT22;63123;50.906;4.198;2022-10-23T03:48:04;19.70;67.40
74617;DHT22;63123;50.906;4.198;2022-10-23T03:50:30;19.80;67.50
74617;DHT22;63123;50.906;4.198;2022-10-23T03:52:56;19.70;67.40
74617;DHT22;63123;50.906;4.198;2022-10-23T03:55:22;19.70;67.40
74617;DHT22;63123;50.906;4.198;2022-10-23T03:57:50;19.70;67.40
74617;DHT22;63123;50.906;4.198;2022-10-23T04:00:15;19.70;67.40
74617;DHT22;63123;50.906;4.198;2022-10-23T04:02:41;19.70;67.40
74617;DHT22;63123;50.906;4.198;2022-10-23T04:05:07;19.70;67.40
74617;DHT22;63123;50.906;4.198;2022-10-23T04:07:33;19.70;67.40
74617;DHT22;63123;50.906;4.198;2022-10-23T04:09:58;19.70;67.40
74617;DHT22;63123;50.906;4.198;2022-10-23T04:12:24;19.70;67.40
74617;DHT22;63123;50.906;4.198;2022-10-23T04:14:49;19.70;67.40
74617;DHT22;63123;50.906;4.198;2022-10-23T04:17:15;19.70;67.40
74617;DHT22;63123;50.906;4.198;2022-10-23T04:19:41;19.70;67.40
74617;DHT22;63123;50.906;4.198;2022-10-23T04:22:06;19.70;67.40
74617;DHT22;63123;50.906;4.198;2022-10-23T04:24:32;19.70;67.40
74617;DHT22;63123;50.906;4.198;2022-10-23T04:26:58;19.70;67.40
74617;DHT22;63123;50.906;4.198;2022-10-23T04:29:23;19.80;67.50
74617;DHT22;63123;50.906;4.198;2022-10-23T04:31:50;19.70;67.40
74617;DHT22;63123;50.906;4.198;2022-10-23T04:34:17;19.70;67.40
74617;DHT22;63123;50.906;4.198;2022-10-23T04:36:42;19.70;67.40
74617;DHT22;63123;50.906;4.198;2022-10-23T04:39:08;19.70;67.40
74617;DHT22;63123;50.906;4.198;2022-10-23T04:41:34;19.70;67.40
74617;DHT22;63123;50.906;4.198;2022-10-23T04:44:00;19.70;67.40
74617;DHT22;63123;50.906;4.198;2022-10-23T04:46:26;19.70;68.00
74617;DHT22;63123;50.906;4.198;2022-10-23T04:48:51;19.70;67.40
74617;DHT22;63123;50.906;4.198;2022-10-23T04:51:17;19.70;67.40
74617;DHT22;63123;50.906;4.198;2022-10-23T04:53:42;19.70;67.40
74617;DHT22;63123;50.906;4.198;2022-10-23T04:56:12;19.70;67.40
74617;DHT22;63123;50.906;4.198;2022-10-23T04:58:38;19.70;67.40
74617;DHT22;63123;50.906;4.198;2022-10-23T05:01:03;19.70;67.40
74617;DHT22;63123;50.906;4.198;2022-10-23T05:03:31;19.70;67.40
74617;DHT22;63123;50.906;4.198;2022-10-23T05:05:57;19.70;67.40
74617;DHT22;63123;50.906;4.198;2022-10-23T05:08:23;19.70;67.40
74617;DHT22;63123;50.906;4.198;2022-10-23T05:10:49;19.70;67.40
74617;DHT22;63123;50.906;4.198;2022-10-23T05:13:16;19.70;67.40
74617;DHT22;63123;50.906;4.198;2022-10-23T05:15:47;19.70;67.40
74617;DHT22;63123;50.906;4.198;2022-10-23T05:18:25;19.70;67.40
74617;DHT22;63123;50.906;4.198;2022-10-23T05:20:59;19.70;67.40
74617;DHT22;63123;50.906;4.198;2022-10-23T05:23:25;19.70;67.50
74617;DHT22;63123;50.906;4.198;2022-10-23T05:25:51;19.70;68.00
74617;DHT22;63123;50.906;4.198;2022-10-23T05:28:17;19.70;67.40
74617;DHT22;63123;50.906;4.198;2022-10-23T05:30:43;19.70;67.50
74617;DHT22;63123;50.906;4.198;2022-10-23T05:33:09;19.70;67.50
74617;DHT22;63123;50.906;4.198;2022-10-23T05:35:36;19.70;67.50
74617;DHT22;63123;50.906;4.198;2022-10-23T05:38:02;19.70;67.50
74617;DHT22;63123;50.906;4.198;2022-10-23T05:40:28;19.70;67.50
74617;DHT22;63123;50.906;4.198;2022-10-23T05:42:53;19.70;67.40
74617;DHT22;63123;50.906;4.198;2022-10-23T05:45:19;19.70;67.40
74617;DHT22;63123;50.906;4.198;2022-10-23T05:47:45;19.80;67.50
74617;DHT22;63123;50.906;4.198;2022-10-23T05:50:11;19.70;67.50
74617;DHT22;63123;50.906;4.198;2022-10-23T05:52:36;19.80;67.60
74617;DHT22;63123;50.906;4.198;2022-10-23T05:55:02;19.80;67.50
74617;DHT22;63123;50.906;4.198;2022-10-23T05:57:31;19.70;67.40
74617;DHT22;63123;50.906;4.198;2022-10-23T05:59:57;19.70;67.40
74617;DHT22;63123;50.906;4.198;2022-10-23T06:02:23;19.70;67.40
74617;DHT22;63123;50.906;4.198;2022-10-23T06:04:48;19.70;67.50
74617;DHT22;63123;50.906;4.198;2022-10-23T06:07:14;19.70;67.40
74617;DHT22;63123;50.906;4.198;2022-10-23T06:09:40;19.70;67.50
74617;DHT22;63123;50.906;4.198;2022-10-23T06:12:05;19.70;67.40
74617;DHT22;63123;50.906;4.198;2022-10-23T06:14:31;19.70;67.40
74617;DHT22;63123;50.906;4.198;2022-10-23T06:16:56;19.70;67.40
74617;DHT22;63123;50.906;4.198;2022-10-23T06:19:22;19.70;67.50
74617;DHT22;63123;50.906;4.198;2022-10-23T06:21:47;19.70;67.40
74617;DHT22;63123;50.906;4.198;2022-10-23T06:24:13;19.70;67.40
74617;DHT22;63123;50.906;4.198;2022-10-23T06:26:38;19.70;67.40
74617;DHT22;63123;50.906;4.198;2022-10-23T06:29:04;19.70;67.40
74617;DHT22;63123;50.906;4.198;2022-10-23T06:31:30;19.70;67.50
74617;DHT22;63123;50.906;4.198;2022-10-23T06:33:56;19.70;67.50
74617;DHT22;63123;50.906;4.198;2022-10-23T06:36:23;19.70;67.40
74617;DHT22;63123;50.906;4.198;2022-10-23T06:38:48;19.70;67.50
74617;DHT22;63123;50.906;4.198;2022-10-23T06:41:19;19.70;67.40
74617;DHT22;63123;50.906;4.198;2022-10-23T06:43:49;19.70;67.50
74617;DHT22;63123;50.906;4.198;2022-10-23T06:46:15;19.70;67.40
74617;DHT22;63123;50.906;4.198;2022-10-23T06:48:41;19.80;67.50
74617;DHT22;63123;50.906;4.198;2022-10-23T06:51:08;19.80;67.50
74617;DHT22;63123;50.906;4.198;2022-10-23T06:53:36;19.80;67.60
74617;DHT22;63123;50.906;4.198;2022-10-23T06:56:03;19.70;67.50
74617;DHT22;63123;50.906;4.198;2022-10-23T06:58:30;19.70;67.50
74617;DHT22;63123;50.906;4.198;2022-10-23T07:00:59;19.70;67.50
74617;DHT22;63123;50.906;4.198;2022-10-23T07:03:26;19.80;67.50
74617;DHT22;63123;50.906;4.198;2022-10-23T07:05:51;19.80;67.50
74617;DHT22;63123;50.906;4.198;2022-10-23T07:08:17;19.80;67.50
74617;DHT22;63123;50.906;4.198;2022-10-23T07:10:42;19.70;67.40
74617;DHT22;63123;50.906;4.198;2022-10-23T07:13:09;19.70;67.60
74617;DHT22;63123;50.906;4.198;2022-10-23T07:15:35;19.70;67.50
74617;DHT22;63123;50.906;4.198;2022-10-23T07:18:01;19.70;67.50
74617;DHT22;63123;50.906;4.198;2022-10-23T07:20:27;19.80;67.60
74617;DHT22;63123;50.906;4.198;2022-10-23T07:22:54;19.80;67.90
74617;DHT22;63123;50.906;4.198;2022-10-23T07:25:21;19.80;67.80
74617;DHT22;63123;50.906;4.198;2022-10-23T07:27:47;19.80;67.80
74617;DHT22;63123;50.906;4.198;2022-10-23T07:30:13;19.80;67.80
74617;DHT22;63123;50.906;4.198;2022-10-23T07:32:39;19.80;67.60
74617;DHT22;63123;50.906;4.198;2022-10-23T07:35:06;19.80;67.70
74617;DHT22;63123;50.906;4.198;2022-10-23T07:37:31;19.80;67.80
74617;DHT22;63123;50.906;4.198;2022-10-23T07:39:57;19.80;68.00
74617;DHT22;63123;50.906;4.198;2022-10-23T07:42:23;19.80;68.30
74617;DHT22;63123;50.906;4.198;2022-10-23T07:44:48;19.80;68.10
74617;DHT22;63123;50.906;4.198;2022-10-23T07:47:14;19.80;68.00
74617;DHT22;63123;50.906;4.198;2022-10-23T07:49:40;19.90;68.10
74617;DHT22;63123;50.906;4.198;2022-10-23T07:52:05;19.90;68.30
74617;DHT22;63123;50.906;4.198;2022-10-23T07:54:31;19.90;68.20
74617;DHT22;63123;50.906;4.198;2022-10-23T07:57:00;19.90;68.10
74617;DHT22;63123;50.906;4.198;2022-10-23T07:59:26;19.90;68.20
74617;DHT22;63123;50.906;4.198;2022-10-23T08:01:51;19.90;68.30
74617;DHT22;63123;50.906;4.198;2022-10-23T08:04:20;19.90;68.60
74617;DHT22;63123;50.906;4.198;2022-10-23T08:06:46;19.90;68.60
74617;DHT22;63123;50.906;4.198;2022-10-23T08:09:12;19.90;68.90
74617;DHT22;63123;50.906;4.198;2022-10-23T08:11:37;20.00;69.20
74617;DHT22;63123;50.906;4.198;2022-10-23T08:14:04;20.00;68.80
74617;DHT22;63123;50.906;4.198;2022-10-23T08:16:35;20.00;68.90
74617;DHT22;63123;50.906;4.198;2022-10-23T08:19:02;20.00;68.90
74617;DHT22;63123;50.906;4.198;2022-10-23T08:21:29;20.00;68.60
74617;DHT22;63123;50.906;4.198;2022-10-23T08:23:55;20.00;68.50
74617;DHT22;63123;50.906;4.198;2022-10-23T08:26:22;19.90;68.20
74617;DHT22;63123;50.906;4.198;2022-10-23T08:28:49;20.00;68.30
74617;DHT22;63123;50.906;4.198;2022-10-23T08:31:16;19.90;68.30
74617;DHT22;63123;50.906;4.198;2022-10-23T08:33:42;19.90;68.90
74617;DHT22;63123;50.906;4.198;2022-10-23T08:36:26;20.00;68.80
74617;DHT22;63123;50.906;4.198;2022-10-23T08:38:53;20.00;69.00
74617;DHT22;63123;50.906;4.198;2022-10-23T08:41:37;20.00;69.40
74617;DHT22;63123;50.906;4.198;2022-10-23T08:46:46;20.00;69.30
74617;DHT22;63123;50.906;4.198;2022-10-23T08:51:56;20.00;68.70
74617;DHT22;63123;50.906;4.198;2022-10-23T08:54:44;20.00;68.60
74617;DHT22;63123;50.906;4.198;2022-10-23T08:57:14;20.00;68.60
74617;DHT22;63123;50.906;4.198;2022-10-23T08:59:49;20.00;69.30
74617;DHT22;63123;50.906;4.198;2022-10-23T09:02:29;20.00;68.50
74617;DHT22;63123;50.906;4.198;2022-10-23T09:04:57;20.00;68.50
74617;DHT22;63123;50.906;4.198;2022-10-23T09:12:49;20.00;68.50
74617;DHT22;63123;50.906;4.198;2022-10-23T09:15:29;20.00;68.60
74617;DHT22;63123;50.906;4.198;2022-10-23T09:18:00;20.00;68.40
74617;DHT22;63123;50.906;4.198;2022-10-23T09:20:32;20.00;68.50
74617;DHT22;63123;50.906;4.198;2022-10-23T09:23:05;20.00;68.40
74617;DHT22;63123;50.906;4.198;2022-10-23T09:25:38;20.00;68.30
74617;DHT22;63123;50.906;4.198;2022-10-23T09:28:04;20.00;68.20
74617;DHT22;63123;50.906;4.198;2022-10-23T09:30:36;20.00;68.10
74617;DHT22;63123;50.906;4.198;2022-10-23T09:33:17;20.00;68.10
74617;DHT22;63123;50.906;4.198;2022-10-23T09:36:18;20.00;68.10
74617;DHT22;63123;50.906;4.198;2022-10-23T09:41:21;19.90;68.10
74617;DHT22;63123;50.906;4.198;2022-10-23T09:44:10;19.90;68.10
74617;DHT22;63123;50.906;4.198;2022-10-23T09:46:44;19.90;68.10
74617;DHT22;63123;50.906;4.198;2022-10-23T09:52:01;20.00;68.10
74617;DHT22;63123;50.906;4.198;2022-10-23T09:54:33;19.90;68.10
74617;DHT22;63123;50.906;4.198;2022-10-23T10:00:02;19.90;68.10
74617;DHT22;63123;50.906;4.198;2022-10-23T10:02:31;20.00;68.20
74617;DHT22;63123;50.906;4.198;2022-10-23T10:04:58;19.90;68.10
74617;DHT22;63123;50.906;4.198;2022-10-23T10:07:27;19.90;68.10
74617;DHT22;63123;50.906;4.198;2022-10-23T10:09:55;19.90;68.10
74617;DHT22;63123;50.906;4.198;2022-10-23T10:12:30;19.90;68.10
74617;DHT22;63123;50.906;4.198;2022-10-23T10:34:42;19.90;68.20
74617;DHT22;63123;50.906;4.198;2022-10-23T10:37:42;19.90;68.10
74617;DHT22;63123;50.906;4.198;2022-10-23T10:43:01;19.90;68.20
74617;DHT22;63123;50.906;4.198;2022-10-23T10:45:33;19.90;68.20
74617;DHT22;63123;50.906;4.198;2022-10-23T10:48:20;19.90;68.20
74617;DHT22;63123;50.906;4.198;2022-10-23T10:56:03;19.90;68.30
74617;DHT22;63123;50.906;4.198;2022-10-23T10:58:46;19.90;68.20
74617;DHT22;63123;50.906;4.198;2022-10-23T11:01:19;19.90;68.20
74617;DHT22;63123;50.906;4.198;2022-10-23T11:06:28;19.90;68.20
74617;DHT22;63123;50.906;4.198;2022-10-23T11:08:59;19.90;68.30
74617;DHT22;63123;50.906;4.198;2022-10-23T11:13:56;19.90;68.30
74617;DHT22;63123;50.906;4.198;2022-10-23T11:16:34;19.90;68.30
74617;DHT22;63123;50.906;4.198;2022-10-23T11:19:20;19.90;68.30
74617;DHT22;63123;50.906;4.198;2022-10-23T11:22:04;19.90;68.20
74617;DHT22;63123;50.906;4.198;2022-10-23T11:25:11;19.90;68.30
74617;DHT22;63123;50.906;4.198;2022-10-23T11:27:56;19.90;68.20
74617;DHT22;63123;50.906;4.198;2022-10-23T11:30:32;19.90;68.30
74617;DHT22;63123;50.906;4.198;2022-10-23T11:40:43;19.90;68.30
74617;DHT22;63123;50.906;4.198;2022-10-23T11:43:09;19.90;68.30
74617;DHT22;63123;50.906;4.198;2022-10-23T11:45:38;19.90;68.40
74617;DHT22;63123;50.906;4.198;2022-10-23T11:48:40;19.90;68.30
74617;DHT22;63123;50.906;4.198;2022-10-23T11:51:29;19.90;68.30
74617;DHT22;63123;50.906;4.198;2022-10-23T11:56:31;19.90;68.40
74617;DHT22;63123;50.906;4.198;2022-10-23T11:59:09;19.90;68.40
74617;DHT22;63123;50.906;4.198;2022-10-23T12:01:42;19.90;68.30
74617;DHT22;63123;50.906;4.198;2022-10-23T12:06:46;19.90;68.40
74617;DHT22;63123;50.906;4.198;2022-10-23T12:09:37;19.90;68.30
74617;DHT22;63123;50.906;4.198;2022-10-23T12:14:46;19.90;68.40
74617;DHT22;63123;50.906;4.198;2022-10-23T12:19:50;19.90;68.40
74617;DHT22;63123;50.906;4.198;2022-10-23T12:22:16;19.90;68.40
74617;DHT22;63123;50.906;4.198;2022-10-23T12:24:59;19.90;68.40
74617;DHT22;63123;50.906;4.198;2022-10-23T12:30:38;19.90;68.30
74617;DHT22;63123;50.906;4.198;2022-10-23T12:36:50;19.90;68.30
74617;DHT22;63123;50.906;4.198;2022-10-23T12:39:27;19.90;68.40
74617;DHT22;63123;50.906;4.198;2022-10-23T12:41:54;19.90;68.40
74617;DHT22;63123;50.906;4.198;2022-10-23T12:44:20;19.90;68.30
74617;DHT22;63123;50.906;4.198;2022-10-23T12:46:48;19.90;68.40
74617;DHT22;63123;50.906;4.198;2022-10-23T12:49:15;19.90;68.20
74617;DHT22;63123;50.906;4.198;2022-10-23T12:51:41;19.90;68.30
74617;DHT22;63123;50.906;4.198;2022-10-23T12:54:19;19.90;68.20
74617;DHT22;63123;50.906;4.198;2022-10-23T12:56:45;19.90;68.30
74617;DHT22;63123;50.906;4.198;2022-10-23T12:59:18;19.90;68.20
74617;DHT22;63123;50.906;4.198;2022-10-23T13:01:45;20.00;68.30
74617;DHT22;63123;50.906;4.198;2022-10-23T13:04:30;19.90;68.20
74617;DHT22;63123;50.906;4.198;2022-10-23T13:06:58;19.90;68.20
74617;DHT22;63123;50.906;4.198;2022-10-23T13:09:31;19.90;68.30
74617;DHT22;63123;50.906;4.198;2022-10-23T13:12:00;19.90;68.20
74617;DHT22;63123;50.906;4.198;2022-10-23T13:14:40;19.90;68.30
74617;DHT22;63123;50.906;4.198;2022-10-23T13:17:08;19.90;68.30
74617;DHT22;63123;50.906;4.198;2022-10-23T13:19:34;19.90;68.30
74617;DHT22;63123;50.906;4.198;2022-10-23T13:22:03;19.90;68.30
74617;DHT22;63123;50.906;4.198;2022-10-23T13:24:30;19.90;68.40
74617;DHT22;63123;50.906;4.198;2022-10-23T13:26:56;19.90;68.40
74617;DHT22;63123;50.906;4.198;2022-10-23T13:29:33;19.90;68.40
74617;DHT22;63123;50.906;4.198;2022-10-23T13:32:18;19.90;68.30
74617;DHT22;63123;50.906;4.198;2022-10-23T13:34:53;19.90;68.40
74617;DHT22;63123;50.906;4.198;2022-10-23T13:37:27;19.90;68.50
74617;DHT22;63123;50.906;4.198;2022-10-23T13:42:29;19.90;68.50
74617;DHT22;63123;50.906;4.198;2022-10-23T13:44:55;19.90;68.40
74617;DHT22;63123;50.906;4.198;2022-10-23T13:47:20;19.90;68.50
74617;DHT22;63123;50.906;4.198;2022-10-23T13:49:46;19.90;68.40
74617;DHT22;63123;50.906;4.198;2022-10-23T13:52:13;19.90;68.50
74617;DHT22;63123;50.906;4.198;2022-10-23T13:54:43;19.90;68.50
74617;DHT22;63123;50.906;4.198;2022-10-23T13:57:12;19.90;68.50
74617;DHT22;63123;50.906;4.198;2022-10-23T13:59:38;19.90;68.50
74617;DHT22;63123;50.906;4.198;2022-10-23T14:02:20;19.90;68.50
74617;DHT22;63123;50.906;4.198;2022-10-23T14:04:47;19.90;68.50
74617;DHT22;63123;50.906;4.198;2022-10-23T14:07:13;19.90;68.50
74617;DHT22;63123;50.906;4.198;2022-10-23T14:09:38;19.90;68.50
74617;DHT22;63123;50.906;4.198;2022-10-23T14:12:04;19.90;68.50
74617;DHT22;63123;50.906;4.198;2022-10-23T14:14:30;19.90;68.50
74617;DHT22;63123;50.906;4.198;2022-10-23T14:16:55;19.90;68.50
74617;DHT22;63123;50.906;4.198;2022-10-23T14:19:21;19.90;68.50
74617;DHT22;63123;50.906;4.198;2022-10-23T14:21:46;19.90;68.60
74617;DHT22;63123;50.906;4.198;2022-10-23T14:24:12;19.90;68.50
74617;DHT22;63123;50.906;4.198;2022-10-23T14:26:39;19.90;68.60
74617;DHT22;63123;50.906;4.198;2022-10-23T14:29:05;19.90;68.50
74617;DHT22;63123;50.906;4.198;2022-10-23T14:31:30;19.90;68.50
74617;DHT22;63123;50.906;4.198;2022-10-23T14:33:57;19.90;68.50
74617;DHT22;63123;50.906;4.198;2022-10-23T14:36:25;19.90;68.50
74617;DHT22;63123;50.906;4.198;2022-10-23T14:38:58;19.90;68.60
74617;DHT22;63123;50.906;4.198;2022-10-23T14:41:24;19.90;68.60
74617;DHT22;63123;50.906;4.198;2022-10-23T14:43:50;19.90;68.60
74617;DHT22;63123;50.906;4.198;2022-10-23T14:46:20;19.90;68.60
74617;DHT22;63123;50.906;4.198;2022-10-23T14:48:46;19.90;68.60
74617;DHT22;63123;50.906;4.198;2022-10-23T14:51:21;19.90;68.60
74617;DHT22;63123;50.906;4.198;2022-10-23T14:53:47;19.90;68.60
74617;DHT22;63123;50.906;4.198;2022-10-23T14:56:13;19.90;68.70
74617;DHT22;63123;50.906;4.198;2022-10-23T14:58:39;19.90;68.70
74617;DHT22;63123;50.906;4.198;2022-10-23T15:01:06;19.90;68.70
74617;DHT22;63123;50.906;4.198;2022-10-23T15:03:32;19.90;68.70
74617;DHT22;63123;50.906;4.198;2022-10-23T15:05:58;19.90;68.70
74617;DHT22;63123;50.906;4.198;2022-10-23T15:08:23;19.90;68.70
74617;DHT22;63123;50.906;4.198;2022-10-23T15:10:49;19.90;68.70
74617;DHT22;63123;50.906;4.198;2022-10-23T15:13:15;19.90;68.80
74617;DHT22;63123;50.906;4.198;2022-10-23T15:15:40;19.90;68.80
74617;DHT22;63123;50.906;4.198;2022-10-23T15:18:06;19.90;68.70
74617;DHT22;63123;50.906;4.198;2022-10-23T15:20:32;19.90;68.80
74617;DHT22;63123;50.906;4.198;2022-10-23T15:22:57;19.90;68.80
74617;DHT22;63123;50.906;4.198;2022-10-23T15:25:24;19.90;68.80
74617;DHT22;63123;50.906;4.198;2022-10-23T15:27:50;19.90;68.80
74617;DHT22;63123;50.906;4.198;2022-10-23T15:30:16;19.90;68.80
74617;DHT22;63123;50.906;4.198;2022-10-23T15:32:41;19.90;68.80
74617;DHT22;63123;50.906;4.198;2022-10-23T15:35:07;19.90;68.90
74617;DHT22;63123;50.906;4.198;2022-10-23T15:37:33;19.90;68.80
74617;DHT22;63123;50.906;4.198;2022-10-23T15:39:58;19.90;68.90
74617;DHT22;63123;50.906;4.198;2022-10-23T15:42:24;19.90;68.90
74617;DHT22;63123;50.906;4.198;2022-10-23T15:44:50;19.90;68.90
74617;DHT22;63123;50.906;4.198;2022-10-23T15:47:15;19.90;68.90
74617;DHT22;63123;50.906;4.198;2022-10-23T15:49:41;19.90;68.90
74617;DHT22;63123;50.906;4.198;2022-10-23T15:52:07;19.90;69.00
74617;DHT22;63123;50.906;4.198;2022-10-23T15:54:33;19.90;69.00
74617;DHT22;63123;50.906;4.198;2022-10-23T15:57:00;19.90;69.10
74617;DHT22;63123;50.906;4.198;2022-10-23T15:59:26;19.90;69.10
74617;DHT22;63123;50.906;4.198;2022-10-23T16:01:53;19.90;68.90
74617;DHT22;63123;50.906;4.198;2022-10-23T16:04:19;19.90;69.10
74617;DHT22;63123;50.906;4.198;2022-10-23T16:06:45;19.90;69.00
74617;DHT22;63123;50.906;4.198;2022-10-23T16:09:11;19.90;69.00
74617;DHT22;63123;50.906;4.198;2022-10-23T16:11:38;19.90;69.00
74617;DHT22;63123;50.906;4.198;2022-10-23T16:14:04;19.90;69.00
74617;DHT22;63123;50.906;4.198;2022-10-23T16:16:31;19.90;69.00
74617;DHT22;63123;50.906;4.198;2022-10-23T16:18:58;19.90;69.00
74617;DHT22;63123;50.906;4.198;2022-10-23T16:21:27;19.90;69.10
74617;DHT22;63123;50.906;4.198;2022-10-23T16:23:55;19.90;69.10
74617;DHT22;63123;50.906;4.198;2022-10-23T16:26:21;19.90;69.00
74617;DHT22;63123;50.906;4.198;2022-10-23T16:28:48;19.90;69.10
74617;DHT22;63123;50.906;4.198;2022-10-23T16:31:17;19.90;69.10
74617;DHT22;63123;50.906;4.198;2022-10-23T16:33:44;19.90;69.70
74617;DHT22;63123;50.906;4.198;2022-10-23T16:36:10;19.90;69.10
74617;DHT22;63123;50.906;4.198;2022-10-23T16:38:36;19.90;69.00
74617;DHT22;63123;50.906;4.198;2022-10-23T16:41:03;19.90;69.00
74617;DHT22;63123;50.906;4.198;2022-10-23T16:43:29;19.90;69.10
74617;DHT22;63123;50.906;4.198;2022-10-23T16:48:32;19.90;69.10
74617;DHT22;63123;50.906;4.198;2022-10-23T16:50:58;19.90;69.10
74617;DHT22;63123;50.906;4.198;2022-10-23T16:53:24;19.90;69.10
74617;DHT22;63123;50.906;4.198;2022-10-23T16:55:54;19.90;69.10
74617;DHT22;63123;50.906;4.198;2022-10-23T16:58:21;19.90;69.10
74617;DHT22;63123;50.906;4.198;2022-10-23T17:01:04;19.90;69.00
74617;DHT22;63123;50.906;4.198;2022-10-23T17:03:33;19.90;69.00
74617;DHT22;63123;50.906;4.198;2022-10-23T17:06:00;19.90;69.10
74617;DHT22;63123;50.906;4.198;2022-10-23T17:08:26;19.90;69.10
74617;DHT22;63123;50.906;4.198;2022-10-23T17:13:39;19.90;69.10
74617;DHT22;63123;50.906;4.198;2022-10-23T17:16:10;19.90;69.10
74617;DHT22;63123;50.906;4.198;2022-10-23T17:18:37;19.90;69.20
74617;DHT22;63123;50.906;4.198;2022-10-23T17:21:03;19.90;69.10
74617;DHT22;63123;50.906;4.198;2022-10-23T17:23:30;19.90;69.10
74617;DHT22;63123;50.906;4.198;2022-10-23T17:25:56;19.90;69.20